»·PEaware :: N286NF L88-KSBP

N286NF :: L88-KSBP

FLIGHT INFORMATION

Flight Status: Arrived
Operator: Privately registered:
United States
More flights under this callsign
Pilot: Norbert F. (15442)
Aircraft: PIPER PA-24 COMMANCHE
(PA24)
More flights by this aircraft type
Origin: L88 New Cuyama
United States
Destination: KSBP San Luis Co Regl
United States
More flights between these airports :: More routes between these airports
Route: DCT
File this flight plan on PilotEdge
Remarks: CAT-02 rating
Altitude:
(Current/Filed)
8,500ft
Speed:
(Current/Filed)
160kts
Departed: 22-Sep-18 04:38 PM
Arrived: 22-Sep-18 05:04 PM
Distance/Time
Traveled:
50nm/0:26
Distance/Time
To Go:
Arrived

Flight Plot

Page will automatically refresh every two minutes.


Map Options




Map Legend


Flown Route
Filed Route
Departure Airport
Arrival Airport
Navaid (VOR, NDB)
Fix

Horizontal Profiles

Position Reports

Time Latitude Longitude Heading Altitude Ground
Speed
22-Sep-18 16:19 34.939816 -119.693383 23 2206ft 0kts
22-Sep-18 16:20 34.939816 -119.693383 23 2206ft 0kts
22-Sep-18 16:21 34.939816 -119.693383 23 2206ft 0kts
22-Sep-18 16:22 34.939816 -119.693383 23 2206ft 0kts
22-Sep-18 16:23 34.939816 -119.693383 23 2206ft 0kts
22-Sep-18 16:24 34.939816 -119.693383 23 2206ft 0kts
22-Sep-18 16:25 34.939816 -119.693383 23 2206ft 0kts
22-Sep-18 16:26 34.939816 -119.693383 23 2206ft 0kts
22-Sep-18 16:27 34.939816 -119.693383 23 2206ft 0kts
22-Sep-18 16:28 34.939816 -119.693383 23 2206ft 0kts
22-Sep-18 16:29 34.939816 -119.693383 23 2206ft 0kts
22-Sep-18 16:30 34.939816 -119.693383 23 2206ft 0kts
22-Sep-18 16:31 34.939816 -119.693383 23 2206ft 0kts
22-Sep-18 16:32 34.939818 -119.693382 23 2206ft 0kts
22-Sep-18 16:33 34.939820 -119.693380 23 2206ft 0kts
22-Sep-18 16:34 34.939823 -119.693379 23 2206ft 0kts
22-Sep-18 16:35 34.939825 -119.693378 23 2206ft 0kts
22-Sep-18 16:36 34.939827 -119.693377 23 2206ft 0kts
22-Sep-18 16:37 34.939830 -119.693375 23 2206ft 0kts
22-Sep-18 16:38 34.940023 -119.693854 285 2206ft 0kts
22-Sep-18 16:39 34.940024 -119.694082 239 2206ft 3kts
22-Sep-18 16:40 34.939095 -119.692660 115 2206ft 48kts
22-Sep-18 16:41 34.940000 -119.674892 313 3004ft 99kts
22-Sep-18 16:42 34.944071 -119.707979 287 4033ft 96kts
22-Sep-18 16:43 34.956366 -119.738515 294 4945ft 102kts
22-Sep-18 16:44 34.967146 -119.770375 286 6043ft 101kts
22-Sep-18 16:45 34.971142 -119.784259 286 6505ft 101kts
22-Sep-18 16:46 34.981115 -119.816940 287 7325ft 103kts
22-Sep-18 16:47 34.991675 -119.850002 287 8079ft 105kts
22-Sep-18 16:48 35.003051 -119.886403 287 8489ft 135kts
22-Sep-18 16:49 35.017111 -119.931256 288 8440ft 152kts
22-Sep-18 16:50 35.032235 -119.979427 288 8423ft 150kts
22-Sep-18 16:51 35.047052 -120.026692 288 8461ft 150kts
22-Sep-18 16:52 35.061837 -120.074260 288 8485ft 150kts
22-Sep-18 16:53 35.076772 -120.122201 288 8489ft 151kts
22-Sep-18 16:54 35.091627 -120.170233 288 8040ft 154kts
22-Sep-18 16:55 35.107585 -120.221354 288 6858ft 169kts
22-Sep-18 16:56 35.123830 -120.274232 289 5720ft 163kts
22-Sep-18 16:57 35.139505 -120.324495 289 4719ft 151kts
22-Sep-18 16:58 35.152560 -120.371771 283 4056ft 136kts
22-Sep-18 16:59 35.167683 -120.416801 292 3649ft 147kts
22-Sep-18 17:00 35.182209 -120.463035 290 3220ft 145kts
22-Sep-18 17:01 35.192421 -120.509271 272 2634ft 137kts
22-Sep-18 17:02 35.189964 -120.553346 277 1793ft 109kts
22-Sep-18 17:03 35.204091 -120.583556 304 1315ft 98kts
22-Sep-18 17:04 35.217393 -120.606923 306 906ft 83kts
22-Sep-18 17:05 35.230597 -120.629257 304 339ft 78kts
22-Sep-18 17:06 35.237718 -120.641634 305 215ft 8kts
22-Sep-18 17:07 35.238318 -120.640800 59 215ft 0kts
22-Sep-18 17:08 35.238346 -120.640756 44 215ft 2kts
22-Sep-18 17:09 35.238848 -120.640969 323 215ft 0kts
22-Sep-18 17:10 35.238849 -120.640969 323 215ft 0kts
22-Sep-18 17:11 35.238849 -120.640969 323 215ft 0kts
22-Sep-18 17:12 35.238849 -120.640969 323 215ft 0kts
22-Sep-18 17:13 35.238849 -120.640969 323 215ft 0kts
22-Sep-18 17:14 35.238849 -120.640969 323 215ft 0kts
22-Sep-18 17:15 35.238849 -120.640969 323 215ft 0kts
22-Sep-18 17:16 35.238849 -120.640969 323 215ft 0kts
22-Sep-18 17:17 35.238849 -120.640969 323 215ft 0kts
22-Sep-18 17:18 35.238849 -120.640969 323 215ft 0kts
22-Sep-18 17:19 35.238849 -120.640969 323 215ft 0kts
22-Sep-18 17:20 35.238849 -120.640969 323 215ft 0kts

Navigation Log

Ident Type
Flight plan parsing failed, navigation log unavailable